sensor_id;sensor_type;location;lat;lon;timestamp;pressure;altitude;pressure_sealevel;temperature;humidity
63281;BME280;49406;51.044;3.766;2023-03-19T00:02:06;101134.85;;;10.17;100.00
63281;BME280;49406;51.044;3.766;2023-03-19T00:04:41;101141.98;;;10.15;100.00
63281;BME280;49406;51.044;3.766;2023-03-19T00:07:16;101141.95;;;10.12;100.00
63281;BME280;49406;51.044;3.766;2023-03-19T00:09:51;101143.15;;;10.10;100.00
63281;BME280;49406;51.044;3.766;2023-03-19T00:12:26;101137.50;;;10.08;100.00
63281;BME280;49406;51.044;3.766;2023-03-19T00:15:00;101144.77;;;10.14;100.00
63281;BME280;49406;51.044;3.766;2023-03-19T00:17:35;101145.61;;;10.12;100.00
63281;BME280;49406;51.044;3.766;2023-03-19T00:20:12;101148.70;;;10.08;100.00
63281;BME280;49406;51.044;3.766;2023-03-19T00:22:47;101146.88;;;10.05;100.00
63281;BME280;49406;51.044;3.766;2023-03-19T00:25:22;101145.27;;;10.02;100.00
63281;BME280;49406;51.044;3.766;2023-03-19T00:27:57;101142.95;;;9.98;100.00
63281;BME280;49406;51.044;3.766;2023-03-19T00:30:32;101142.70;;;9.92;100.00
63281;BME280;49406;51.044;3.766;2023-03-19T00:33:07;101144.88;;;9.88;100.00
63281;BME280;49406;51.044;3.766;2023-03-19T00:35:42;101146.39;;;9.84;100.00
63281;BME280;49406;51.044;3.766;2023-03-19T00:38:16;101143.86;;;9.78;100.00
63281;BME280;49406;51.044;3.766;2023-03-19T00:40:51;101147.92;;;9.71;100.00
63281;BME280;49406;51.044;3.766;2023-03-19T00:43:26;101150.91;;;9.72;100.00
63281;BME280;49406;51.044;3.766;2023-03-19T00:46:01;101155.87;;;9.75;100.00
63281;BME280;49406;51.044;3.766;2023-03-19T00:48:36;101159.29;;;9.72;100.00
63281;BME280;49406;51.044;3.766;2023-03-19T00:51:11;101162.22;;;9.70;100.00
63281;BME280;49406;51.044;3.766;2023-03-19T00:53:46;101155.86;;;9.64;100.00
63281;BME280;49406;51.044;3.766;2023-03-19T00:56:20;101156.66;;;9.60;100.00
63281;BME280;49406;51.044;3.766;2023-03-19T00:58:56;101159.02;;;9.55;100.00
63281;BME280;49406;51.044;3.766;2023-03-19T01:01:31;101166.05;;;9.49;100.00
63281;BME280;49406;51.044;3.766;2023-03-19T01:04:05;101166.90;;;9.47;100.00
63281;BME280;49406;51.044;3.766;2023-03-19T01:06:39;101169.80;;;9.54;100.00
63281;BME280;49406;51.044;3.766;2023-03-19T01:09:14;101167.88;;;9.53;100.00
63281;BME280;49406;51.044;3.766;2023-03-19T01:11:49;101165.23;;;9.52;100.00
63281;BME280;49406;51.044;3.766;2023-03-19T01:14:24;101165.88;;;9.49;100.00
63281;BME280;49406;51.044;3.766;2023-03-19T01:16:59;101171.19;;;9.43;100.00
63281;BME280;49406;51.044;3.766;2023-03-19T01:19:34;101173.98;;;9.43;100.00
63281;BME280;49406;51.044;3.766;2023-03-19T01:22:08;101176.73;;;9.41;100.00
63281;BME280;49406;51.044;3.766;2023-03-19T01:24:42;101172.58;;;9.34;100.00
63281;BME280;49406;51.044;3.766;2023-03-19T01:27:16;101175.27;;;9.27;100.00
63281;BME280;49406;51.044;3.766;2023-03-19T01:29:51;101174.42;;;9.30;100.00
63281;BME280;49406;51.044;3.766;2023-03-19T01:32:26;101178.09;;;9.29;100.00
63281;BME280;49406;51.044;3.766;2023-03-19T01:35:01;101182.02;;;9.24;100.00
63281;BME280;49406;51.044;3.766;2023-03-19T01:37:35;101179.84;;;9.21;100.00
63281;BME280;49406;51.044;3.766;2023-03-19T01:40:12;101181.51;;;9.16;100.00
63281;BME280;49406;51.044;3.766;2023-03-19T01:42:55;101185.92;;;9.10;100.00
63281;BME280;49406;51.044;3.766;2023-03-19T01:45:34;101187.52;;;9.03;100.00
63281;BME280;49406;51.044;3.766;2023-03-19T01:48:18;101188.87;;;9.09;100.00
63281;BME280;49406;51.044;3.766;2023-03-19T01:50:54;101184.50;;;9.08;100.00
63281;BME280;49406;51.044;3.766;2023-03-19T01:53:32;101186.12;;;9.03;100.00
63281;BME280;49406;51.044;3.766;2023-03-19T01:56:13;101190.25;;;9.00;100.00
63281;BME280;49406;51.044;3.766;2023-03-19T01:58:52;101190.76;;;8.99;100.00
63281;BME280;49406;51.044;3.766;2023-03-19T02:01:32;101195.45;;;8.98;100.00
63281;BME280;49406;51.044;3.766;2023-03-19T02:04:09;101195.39;;;8.95;100.00
63281;BME280;49406;51.044;3.766;2023-03-19T02:06:44;101195.22;;;8.88;100.00
63281;BME280;49406;51.044;3.766;2023-03-19T02:09:19;101193.50;;;8.80;100.00
63281;BME280;49406;51.044;3.766;2023-03-19T02:11:54;101191.63;;;8.74;100.00
63281;BME280;49406;51.044;3.766;2023-03-19T02:14:29;101194.36;;;8.79;100.00
63281;BME280;49406;51.044;3.766;2023-03-19T02:17:05;101189.44;;;8.78;100.00
63281;BME280;49406;51.044;3.766;2023-03-19T02:19:47;101187.15;;;8.76;100.00
63281;BME280;49406;51.044;3.766;2023-03-19T02:22:27;101190.77;;;8.74;100.00
63281;BME280;49406;51.044;3.766;2023-03-19T02:25:08;101188.42;;;8.71;100.00
63281;BME280;49406;51.044;3.766;2023-03-19T02:27:44;101183.00;;;8.70;100.00
63281;BME280;49406;51.044;3.766;2023-03-19T02:30:22;101175.65;;;8.68;100.00
63281;BME280;49406;51.044;3.766;2023-03-19T02:32:56;101177.27;;;8.63;100.00
63281;BME280;49406;51.044;3.766;2023-03-19T02:35:32;101177.27;;;8.55;100.00
63281;BME280;49406;51.044;3.766;2023-03-19T02:38:08;101179.39;;;8.48;100.00
63281;BME280;49406;51.044;3.766;2023-03-19T02:40:46;101178.93;;;8.51;100.00
63281;BME280;49406;51.044;3.766;2023-03-19T02:43:23;101174.55;;;8.50;100.00
63281;BME280;49406;51.044;3.766;2023-03-19T02:45:57;101174.10;;;8.45;100.00
63281;BME280;49406;51.044;3.766;2023-03-19T02:48:32;101175.09;;;8.42;100.00
63281;BME280;49406;51.044;3.766;2023-03-19T02:51:07;101180.80;;;8.40;100.00
63281;BME280;49406;51.044;3.766;2023-03-19T02:53:42;101183.50;;;8.37;100.00
63281;BME280;49406;51.044;3.766;2023-03-19T02:56:17;101186.86;;;8.33;100.00
63281;BME280;49406;51.044;3.766;2023-03-19T02:58:51;101186.08;;;8.29;100.00
63281;BME280;49406;51.044;3.766;2023-03-19T03:01:26;101180.42;;;8.25;100.00
63281;BME280;49406;51.044;3.766;2023-03-19T03:04:01;101182.61;;;8.30;100.00
63281;BME280;49406;51.044;3.766;2023-03-19T03:06:37;101182.79;;;8.30;100.00
63281;BME280;49406;51.044;3.766;2023-03-19T03:09:12;101183.02;;;8.25;100.00
63281;BME280;49406;51.044;3.766;2023-03-19T03:11:47;101182.45;;;8.23;100.00
63281;BME280;49406;51.044;3.766;2023-03-19T03:14:22;101179.11;;;8.22;100.00
63281;BME280;49406;51.044;3.766;2023-03-19T03:16:57;101178.99;;;8.17;100.00
63281;BME280;49406;51.044;3.766;2023-03-19T03:19:32;101177.39;;;8.15;100.00
63281;BME280;49406;51.044;3.766;2023-03-19T03:22:07;101180.66;;;8.13;100.00
63281;BME280;49406;51.044;3.766;2023-03-19T03:24:42;101187.92;;;8.11;100.00
63281;BME280;49406;51.044;3.766;2023-03-19T03:27:17;101195.94;;;8.04;100.00
63281;BME280;49406;51.044;3.766;2023-03-19T03:29:51;101191.62;;;7.98;100.00
63281;BME280;49406;51.044;3.766;2023-03-19T03:32:26;101190.18;;;7.96;100.00
63281;BME280;49406;51.044;3.766;2023-03-19T03:35:01;101189.92;;;8.00;100.00
63281;BME280;49406;51.044;3.766;2023-03-19T03:37:37;101189.58;;;8.01;100.00
63281;BME280;49406;51.044;3.766;2023-03-19T03:40:13;101189.89;;;7.99;100.00
63281;BME280;49406;51.044;3.766;2023-03-19T03:42:48;101187.23;;;7.96;100.00
63281;BME280;49406;51.044;3.766;2023-03-19T03:45:23;101188.41;;;7.95;100.00
63281;BME280;49406;51.044;3.766;2023-03-19T03:47:57;101189.29;;;7.88;100.00
63281;BME280;49406;51.044;3.766;2023-03-19T03:50:32;101188.48;;;7.84;100.00
63281;BME280;49406;51.044;3.766;2023-03-19T03:53:07;101190.46;;;7.80;100.00
63281;BME280;49406;51.044;3.766;2023-03-19T03:55:42;101195.73;;;7.82;100.00
63281;BME280;49406;51.044;3.766;2023-03-19T03:58:17;101189.92;;;7.87;100.00
63281;BME280;49406;51.044;3.766;2023-03-19T04:00:52;101189.04;;;7.86;100.00
63281;BME280;49406;51.044;3.766;2023-03-19T04:03:27;101182.08;;;7.85;100.00
63281;BME280;49406;51.044;3.766;2023-03-19T04:06:01;101186.59;;;7.85;100.00
63281;BME280;49406;51.044;3.766;2023-03-19T04:08:36;101190.02;;;7.83;100.00
63281;BME280;49406;51.044;3.766;2023-03-19T04:11:11;101192.98;;;7.83;100.00
63281;BME280;49406;51.044;3.766;2023-03-19T04:13:46;101190.08;;;7.78;100.00
63281;BME280;49406;51.044;3.766;2023-03-19T04:16:21;101190.51;;;7.75;100.00
63281;BME280;49406;51.044;3.766;2023-03-19T04:18:55;101195.95;;;7.84;100.00
63281;BME280;49406;51.044;3.766;2023-03-19T04:21:30;101190.88;;;7.82;100.00
63281;BME280;49406;51.044;3.766;2023-03-19T04:24:06;101188.05;;;7.80;100.00
63281;BME280;49406;51.044;3.766;2023-03-19T04:26:42;101193.91;;;7.78;100.00
63281;BME280;49406;51.044;3.766;2023-03-19T04:29:19;101199.19;;;7.73;100.00
63281;BME280;49406;51.044;3.766;2023-03-19T04:31:54;101201.08;;;7.73;100.00
63281;BME280;49406;51.044;3.766;2023-03-19T04:34:29;101198.42;;;7.72;100.00
63281;BME280;49406;51.044;3.766;2023-03-19T04:37:04;101197.73;;;7.72;100.00
63281;BME280;49406;51.044;3.766;2023-03-19T04:39:39;101199.90;;;7.68;100.00
63281;BME280;49406;51.044;3.766;2023-03-19T04:42:13;101203.83;;;7.65;100.00
63281;BME280;49406;51.044;3.766;2023-03-19T04:44:49;101206.02;;;7.62;100.00
63281;BME280;49406;51.044;3.766;2023-03-19T04:47:24;101204.10;;;7.69;100.00
63281;BME280;49406;51.044;3.766;2023-03-19T04:49:59;101205.10;;;7.67;100.00
63281;BME280;49406;51.044;3.766;2023-03-19T04:52:33;101202.98;;;7.66;100.00
63281;BME280;49406;51.044;3.766;2023-03-19T04:55:10;101209.79;;;7.67;100.00
63281;BME280;49406;51.044;3.766;2023-03-19T04:57:45;101209.29;;;7.68;100.00
63281;BME280;49406;51.044;3.766;2023-03-19T05:00:21;101209.20;;;7.71;100.00
63281;BME280;49406;51.044;3.766;2023-03-19T05:02:56;101209.02;;;7.71;100.00
63281;BME280;49406;51.044;3.766;2023-03-19T05:05:30;101208.43;;;7.68;100.00
63281;BME280;49406;51.044;3.766;2023-03-19T05:08:05;101211.34;;;7.66;100.00
63281;BME280;49406;51.044;3.766;2023-03-19T05:10:41;101216.56;;;7.66;100.00
63281;BME280;49406;51.044;3.766;2023-03-19T05:13:15;101222.73;;;7.76;100.00
63281;BME280;49406;51.044;3.766;2023-03-19T05:15:53;101221.14;;;7.81;100.00
63281;BME280;49406;51.044;3.766;2023-03-19T05:18:27;101227.14;;;7.85;100.00
63281;BME280;49406;51.044;3.766;2023-03-19T05:21:01;101230.28;;;7.92;100.00
63281;BME280;49406;51.044;3.766;2023-03-19T05:23:37;101232.55;;;7.99;100.00
63281;BME280;49406;51.044;3.766;2023-03-19T05:26:11;101236.73;;;8.05;100.00
63281;BME280;49406;51.044;3.766;2023-03-19T05:28:48;101245.08;;;8.12;100.00
63281;BME280;49406;51.044;3.766;2023-03-19T05:31:22;101246.34;;;8.14;100.00
63281;BME280;49406;51.044;3.766;2023-03-19T05:33:57;101243.23;;;8.16;100.00
63281;BME280;49406;51.044;3.766;2023-03-19T05:36:32;101243.69;;;8.20;100.00
63281;BME280;49406;51.044;3.766;2023-03-19T05:39:06;101247.46;;;8.31;100.00
63281;BME280;49406;51.044;3.766;2023-03-19T05:41:41;101247.73;;;8.35;100.00
63281;BME280;49406;51.044;3.766;2023-03-19T05:44:16;101251.70;;;8.40;100.00
63281;BME280;49406;51.044;3.766;2023-03-19T05:46:50;101252.14;;;8.43;100.00
63281;BME280;49406;51.044;3.766;2023-03-19T05:49:24;101256.19;;;8.45;100.00
63281;BME280;49406;51.044;3.766;2023-03-19T05:51:58;101258.67;;;8.48;100.00
63281;BME280;49406;51.044;3.766;2023-03-19T05:57:08;101255.50;;;8.54;100.00
63281;BME280;49406;51.044;3.766;2023-03-19T05:59:43;101255.16;;;8.55;100.00
63281;BME280;49406;51.044;3.766;2023-03-19T06:02:18;101260.15;;;8.59;100.00
63281;BME280;49406;51.044;3.766;2023-03-19T06:04:53;101262.66;;;8.61;100.00
63281;BME280;49406;51.044;3.766;2023-03-19T06:07:27;101269.90;;;8.66;100.00
63281;BME280;49406;51.044;3.766;2023-03-19T06:10:02;101273.27;;;8.69;100.00
63281;BME280;49406;51.044;3.766;2023-03-19T06:12:37;101273.66;;;8.71;100.00
63281;BME280;49406;51.044;3.766;2023-03-19T06:15:12;101281.05;;;8.73;100.00
63281;BME280;49406;51.044;3.766;2023-03-19T06:17:47;101278.66;;;8.76;100.00
63281;BME280;49406;51.044;3.766;2023-03-19T06:20:22;101281.89;;;8.80;100.00
63281;BME280;49406;51.044;3.766;2023-03-19T06:22:55;101283.02;;;8.84;100.00
63281;BME280;49406;51.044;3.766;2023-03-19T06:25:29;101290.91;;;8.87;100.00
63281;BME280;49406;51.044;3.766;2023-03-19T06:28:05;101288.46;;;8.86;100.00
63281;BME280;49406;51.044;3.766;2023-03-19T06:30:40;101294.23;;;9.02;100.00
63281;BME280;49406;51.044;3.766;2023-03-19T06:33:15;101297.19;;;9.09;100.00
63281;BME280;49406;51.044;3.766;2023-03-19T06:35:50;101299.73;;;9.14;100.00
63281;BME280;49406;51.044;3.766;2023-03-19T06:38:23;101305.36;;;9.17;100.00
63281;BME280;49406;51.044;3.766;2023-03-19T06:40:57;101310.85;;;9.21;100.00
63281;BME280;49406;51.044;3.766;2023-03-19T06:43:32;101312.72;;;9.26;100.00
63281;BME280;49406;51.044;3.766;2023-03-19T06:46:09;101320.14;;;9.31;100.00
63281;BME280;49406;51.044;3.766;2023-03-19T06:48:44;101316.08;;;9.28;100.00
63281;BME280;49406;51.044;3.766;2023-03-19T06:51:19;101323.92;;;9.37;100.00
63281;BME280;49406;51.044;3.766;2023-03-19T06:53:53;101327.22;;;9.44;100.00
63281;BME280;49406;51.044;3.766;2023-03-19T06:56:28;101326.98;;;9.49;100.00
63281;BME280;49406;51.044;3.766;2023-03-19T06:59:03;101325.52;;;9.55;100.00
63281;BME280;49406;51.044;3.766;2023-03-19T07:01:38;101329.80;;;9.59;100.00
63281;BME280;49406;51.044;3.766;2023-03-19T07:04:13;101328.44;;;9.61;100.00
63281;BME280;49406;51.044;3.766;2023-03-19T07:06:48;101333.28;;;9.59;100.00
63281;BME280;49406;51.044;3.766;2023-03-19T07:09:22;101336.79;;;9.69;100.00
63281;BME280;49406;51.044;3.766;2023-03-19T07:11:57;101334.07;;;9.73;100.00
63281;BME280;49406;51.044;3.766;2023-03-19T07:14:32;101333.29;;;9.76;100.00
63281;BME280;49406;51.044;3.766;2023-03-19T07:17:06;101330.46;;;9.84;100.00
63281;BME280;49406;51.044;3.766;2023-03-19T07:19:41;101325.91;;;9.93;100.00
63281;BME280;49406;51.044;3.766;2023-03-19T07:22:16;101326.88;;;10.08;100.00
63281;BME280;49406;51.044;3.766;2023-03-19T07:24:51;101333.11;;;10.15;100.00
63281;BME280;49406;51.044;3.766;2023-03-19T07:27:26;101334.95;;;10.19;100.00
63281;BME280;49406;51.044;3.766;2023-03-19T07:30:00;101335.34;;;10.30;100.00
63281;BME280;49406;51.044;3.766;2023-03-19T07:32:35;101337.78;;;10.40;100.00
63281;BME280;49406;51.044;3.766;2023-03-19T07:35:11;101340.63;;;10.54;100.00
63281;BME280;49406;51.044;3.766;2023-03-19T07:37:46;101344.42;;;10.72;100.00
63281;BME280;49406;51.044;3.766;2023-03-19T07:40:21;101349.14;;;10.83;100.00
63281;BME280;49406;51.044;3.766;2023-03-19T07:42:56;101348.23;;;10.81;100.00
63281;BME280;49406;51.044;3.766;2023-03-19T07:45:30;101345.80;;;10.72;100.00
63281;BME280;49406;51.044;3.766;2023-03-19T07:48:06;101348.88;;;10.66;100.00
63281;BME280;49406;51.044;3.766;2023-03-19T07:50:41;101353.80;;;10.69;100.00
63281;BME280;49406;51.044;3.766;2023-03-19T07:53:15;101354.39;;;10.73;100.00
63281;BME280;49406;51.044;3.766;2023-03-19T07:55:50;101352.74;;;10.68;100.00
63281;BME280;49406;51.044;3.766;2023-03-19T07:58:25;101351.45;;;10.63;100.00
63281;BME280;49406;51.044;3.766;2023-03-19T08:00:58;101357.54;;;10.62;100.00
63281;BME280;49406;51.044;3.766;2023-03-19T08:03:33;101358.92;;;10.60;100.00
63281;BME280;49406;51.044;3.766;2023-03-19T08:06:08;101358.42;;;10.62;100.00
63281;BME280;49406;51.044;3.766;2023-03-19T08:08:42;101364.62;;;10.67;100.00
63281;BME280;49406;51.044;3.766;2023-03-19T08:11:17;101362.39;;;10.70;100.00
63281;BME280;49406;51.044;3.766;2023-03-19T08:13:52;101365.85;;;10.68;100.00
63281;BME280;49406;51.044;3.766;2023-03-19T08:16:26;101365.46;;;10.65;100.00
63281;BME280;49406;51.044;3.766;2023-03-19T08:19:01;101371.31;;;10.70;100.00
63281;BME280;49406;51.044;3.766;2023-03-19T08:21:36;101374.80;;;10.80;100.00
63281;BME280;49406;51.044;3.766;2023-03-19T08:24:10;101381.70;;;10.86;100.00
63281;BME280;49406;51.044;3.766;2023-03-19T08:26:45;101384.65;;;10.84;100.00
63281;BME280;49406;51.044;3.766;2023-03-19T08:29:20;101387.62;;;10.83;100.00
63281;BME280;49406;51.044;3.766;2023-03-19T08:31:55;101386.36;;;10.91;100.00
63281;BME280;49406;51.044;3.766;2023-03-19T08:34:31;101393.96;;;10.97;100.00
63281;BME280;49406;51.044;3.766;2023-03-19T08:37:06;101396.45;;;11.00;100.00
63281;BME280;49406;51.044;3.766;2023-03-19T08:39:41;101399.37;;;10.96;100.00
63281;BME280;49406;51.044;3.766;2023-03-19T08:42:16;101402.26;;;10.91;100.00
63281;BME280;49406;51.044;3.766;2023-03-19T08:44:51;101405.84;;;10.96;100.00
63281;BME280;49406;51.044;3.766;2023-03-19T08:47:25;101412.55;;;11.00;100.00
63281;BME280;49406;51.044;3.766;2023-03-19T08:50:00;101413.46;;;11.03;100.00
63281;BME280;49406;51.044;3.766;2023-03-19T08:52:35;101414.70;;;11.03;100.00
63281;BME280;49406;51.044;3.766;2023-03-19T08:55:10;101419.66;;;11.07;100.00
63281;BME280;49406;51.044;3.766;2023-03-19T08:57:45;101423.09;;;11.27;100.00
63281;BME280;49406;51.044;3.766;2023-03-19T09:00:20;101425.67;;;11.36;100.00
63281;BME280;49406;51.044;3.766;2023-03-19T09:02:55;101431.07;;;11.45;100.00
63281;BME280;49406;51.044;3.766;2023-03-19T09:05:30;101433.81;;;11.54;100.00
63281;BME280;49406;51.044;3.766;2023-03-19T09:08:05;101435.77;;;11.57;100.00
63281;BME280;49406;51.044;3.766;2023-03-19T09:10:40;101442.84;;;11.61;100.00
63281;BME280;49406;51.044;3.766;2023-03-19T09:13:14;101446.56;;;11.64;100.00
63281;BME280;49406;51.044;3.766;2023-03-19T09:15:49;101451.52;;;11.56;100.00
63281;BME280;49406;51.044;3.766;2023-03-19T09:18:22;101451.56;;;11.46;100.00
63281;BME280;49406;51.044;3.766;2023-03-19T09:20:57;101450.41;;;11.27;100.00
63281;BME280;49406;51.044;3.766;2023-03-19T09:23:32;101455.73;;;11.21;100.00
63281;BME280;49406;51.044;3.766;2023-03-19T09:26:07;101464.05;;;11.26;100.00
63281;BME280;49406;51.044;3.766;2023-03-19T09:28:42;101466.00;;;11.27;100.00
63281;BME280;49406;51.044;3.766;2023-03-19T09:31:16;101467.21;;;11.27;100.00
63281;BME280;49406;51.044;3.766;2023-03-19T09:33:51;101461.55;;;11.23;100.00
63281;BME280;49406;51.044;3.766;2023-03-19T09:36:26;101459.94;;;11.21;100.00
63281;BME280;49406;51.044;3.766;2023-03-19T09:39:00;101465.74;;;11.23;100.00
63281;BME280;49406;51.044;3.766;2023-03-19T09:41:43;101472.16;;;11.30;100.00
63281;BME280;49406;51.044;3.766;2023-03-19T09:44:28;101476.35;;;11.29;100.00
63281;BME280;49406;51.044;3.766;2023-03-19T09:47:11;101481.98;;;11.31;100.00
63281;BME280;49406;51.044;3.766;2023-03-19T09:49:51;101486.38;;;11.32;100.00
63281;BME280;49406;51.044;3.766;2023-03-19T09:52:39;101485.59;;;11.27;100.00
63281;BME280;49406;51.044;3.766;2023-03-19T09:55:30;101490.39;;;11.21;100.00
63281;BME280;49406;51.044;3.766;2023-03-19T09:58:13;101498.92;;;11.19;100.00
63281;BME280;49406;51.044;3.766;2023-03-19T10:00:51;101502.85;;;11.11;100.00
63281;BME280;49406;51.044;3.766;2023-03-19T10:03:39;101502.72;;;11.05;100.00
63281;BME280;49406;51.044;3.766;2023-03-19T10:06:26;101502.60;;;10.96;100.00
63281;BME280;49406;51.044;3.766;2023-03-19T10:09:24;101504.42;;;10.91;100.00
63281;BME280;49406;51.044;3.766;2023-03-19T10:12:09;101506.96;;;10.95;100.00
63281;BME280;49406;51.044;3.766;2023-03-19T10:14:56;101511.23;;;11.00;100.00
63281;BME280;49406;51.044;3.766;2023-03-19T10:17:38;101511.27;;;11.03;100.00
63281;BME280;49406;51.044;3.766;2023-03-19T10:20:18;101508.84;;;11.04;100.00
63281;BME280;49406;51.044;3.766;2023-03-19T10:23:02;101507.34;;;11.19;100.00
63281;BME280;49406;51.044;3.766;2023-03-19T10:25:40;101505.23;;;11.52;100.00
63281;BME280;49406;51.044;3.766;2023-03-19T10:28:18;101509.89;;;11.83;100.00
63281;BME280;49406;51.044;3.766;2023-03-19T10:31:00;101510.27;;;12.10;100.00
63281;BME280;49406;51.044;3.766;2023-03-19T10:33:43;101518.60;;;12.32;100.00
63281;BME280;49406;51.044;3.766;2023-03-19T10:36:21;101522.10;;;12.47;100.00
63281;BME280;49406;51.044;3.766;2023-03-19T10:39:00;101525.08;;;12.62;100.00
63281;BME280;49406;51.044;3.766;2023-03-19T10:41:45;101523.91;;;12.86;100.00
63281;BME280;49406;51.044;3.766;2023-03-19T10:44:28;101529.03;;;13.08;100.00
63281;BME280;49406;51.044;3.766;2023-03-19T10:47:09;101528.79;;;13.17;100.00
63281;BME280;49406;51.044;3.766;2023-03-19T10:49:44;101532.33;;;13.19;100.00
63281;BME280;49406;51.044;3.766;2023-03-19T10:52:23;101531.31;;;13.24;100.00
63281;BME280;49406;51.044;3.766;2023-03-19T10:55:12;101527.67;;;13.30;100.00
63281;BME280;49406;51.044;3.766;2023-03-19T10:57:50;101531.27;;;13.41;100.00
63281;BME280;49406;51.044;3.766;2023-03-19T11:00:26;101539.27;;;13.55;100.00
63281;BME280;49406;51.044;3.766;2023-03-19T11:03:09;101544.80;;;13.65;100.00
63281;BME280;49406;51.044;3.766;2023-03-19T11:06:15;101555.85;;;13.90;100.00
63281;BME280;49406;51.044;3.766;2023-03-19T11:08:55;101561.77;;;14.13;100.00
63281;BME280;49406;51.044;3.766;2023-03-19T11:11:35;101567.13;;;14.28;100.00
63281;BME280;49406;51.044;3.766;2023-03-19T11:14:18;101564.63;;;14.24;100.00
63281;BME280;49406;51.044;3.766;2023-03-19T11:16:58;101561.63;;;14.18;99.97
63281;BME280;49406;51.044;3.766;2023-03-19T11:19:42;101564.05;;;14.11;100.00
63281;BME280;49406;51.044;3.766;2023-03-19T11:22:24;101567.38;;;14.08;99.97
63281;BME280;49406;51.044;3.766;2023-03-19T11:25:12;101569.83;;;14.06;99.17
63281;BME280;49406;51.044;3.766;2023-03-19T11:27:58;101571.54;;;13.97;99.97
63281;BME280;49406;51.044;3.766;2023-03-19T11:30:39;101570.91;;;13.82;99.90
63281;BME280;49406;51.044;3.766;2023-03-19T11:33:43;101565.40;;;13.72;100.00
63281;BME280;49406;51.044;3.766;2023-03-19T11:36:24;101569.77;;;13.67;99.29
63281;BME280;49406;51.044;3.766;2023-03-19T11:39:17;101573.45;;;13.66;97.96
63281;BME280;49406;51.044;3.766;2023-03-19T11:42:02;101578.08;;;13.52;97.62
63281;BME280;49406;51.044;3.766;2023-03-19T11:44:52;101583.27;;;13.42;97.99
63281;BME280;49406;51.044;3.766;2023-03-19T11:47:32;101585.42;;;13.28;99.30
63281;BME280;49406;51.044;3.766;2023-03-19T11:50:17;101589.23;;;13.08;99.06
63281;BME280;49406;51.044;3.766;2023-03-19T11:53:06;101590.91;;;12.99;99.69
63281;BME280;49406;51.044;3.766;2023-03-19T11:55:49;101591.59;;;12.80;99.96
63281;BME280;49406;51.044;3.766;2023-03-19T12:01:22;101591.65;;;12.56;100.00
63281;BME280;49406;51.044;3.766;2023-03-19T12:04:32;101592.69;;;12.54;100.00
63281;BME280;49406;51.044;3.766;2023-03-19T12:07:15;101601.23;;;12.63;100.00
63281;BME280;49406;51.044;3.766;2023-03-19T12:09:59;101606.23;;;12.73;100.00
63281;BME280;49406;51.044;3.766;2023-03-19T12:12:41;101600.44;;;12.72;98.05
63281;BME280;49406;51.044;3.766;2023-03-19T12:15:26;101594.42;;;12.67;97.84
63281;BME280;49406;51.044;3.766;2023-03-19T12:18:12;101592.61;;;12.77;98.88
63281;BME280;49406;51.044;3.766;2023-03-19T12:20:58;101591.30;;;13.02;96.37
63281;BME280;49406;51.044;3.766;2023-03-19T12:23:46;101591.18;;;13.24;95.63
63281;BME280;49406;51.044;3.766;2023-03-19T12:26:33;101591.48;;;13.36;94.83
63281;BME280;49406;51.044;3.766;2023-03-19T12:29:19;101592.02;;;13.40;94.91
63281;BME280;49406;51.044;3.766;2023-03-19T12:32:17;101597.27;;;13.38;95.26
63281;BME280;49406;51.044;3.766;2023-03-19T12:34:59;101611.46;;;13.33;94.81
63281;BME280;49406;51.044;3.766;2023-03-19T12:37:38;101620.36;;;13.27;95.40
63281;BME280;49406;51.044;3.766;2023-03-19T12:40:24;101627.85;;;13.22;93.78
63281;BME280;49406;51.044;3.766;2023-03-19T12:43:05;101632.84;;;13.13;94.40
63281;BME280;49406;51.044;3.766;2023-03-19T12:45:43;101637.83;;;13.05;94.46
63281;BME280;49406;51.044;3.766;2023-03-19T12:48:23;101641.11;;;12.99;95.32
63281;BME280;49406;51.044;3.766;2023-03-19T12:51:05;101644.41;;;12.95;95.67
63281;BME280;49406;51.044;3.766;2023-03-19T12:53:46;101646.71;;;12.83;94.29
63281;BME280;49406;51.044;3.766;2023-03-19T12:56:30;101650.34;;;12.77;94.25
63281;BME280;49406;51.044;3.766;2023-03-19T12:59:13;101651.17;;;12.74;93.19
63281;BME280;49406;51.044;3.766;2023-03-19T13:01:52;101662.45;;;12.63;94.52
63281;BME280;49406;51.044;3.766;2023-03-19T13:04:34;101659.47;;;12.64;95.54
63281;BME280;49406;51.044;3.766;2023-03-19T13:07:17;101655.85;;;12.69;95.61
63281;BME280;49406;51.044;3.766;2023-03-19T13:09:59;101660.85;;;12.61;94.59
63281;BME280;49406;51.044;3.766;2023-03-19T13:12:37;101661.08;;;12.52;95.07
63281;BME280;49406;51.044;3.766;2023-03-19T13:15:15;101657.08;;;12.42;94.82
63281;BME280;49406;51.044;3.766;2023-03-19T13:17:59;101652.73;;;12.31;95.80
63281;BME280;49406;51.044;3.766;2023-03-19T13:20:54;101661.01;;;12.22;96.56
63281;BME280;49406;51.044;3.766;2023-03-19T13:23:32;101667.33;;;12.11;97.07
63281;BME280;49406;51.044;3.766;2023-03-19T13:26:11;101676.19;;;11.95;97.83
63281;BME280;49406;51.044;3.766;2023-03-19T13:29:00;101680.58;;;11.84;97.80
63281;BME280;49406;51.044;3.766;2023-03-19T13:31:36;101684.70;;;11.71;99.38
63281;BME280;49406;51.044;3.766;2023-03-19T13:34:26;101694.72;;;11.53;100.00
63281;BME280;49406;51.044;3.766;2023-03-19T13:37:06;101702.00;;;11.39;100.00
63281;BME280;49406;51.044;3.766;2023-03-19T13:39:46;101711.11;;;11.29;100.00
63281;BME280;49406;51.044;3.766;2023-03-19T13:42:36;101718.13;;;11.23;100.00
63281;BME280;49406;51.044;3.766;2023-03-19T13:45:34;101721.84;;;11.06;100.00